createdAt,value
2022-12-25T00:03:56.772Z,100486.38
2022-12-25T00:08:58.226Z,100476.19
2022-12-25T00:13:59.528Z,100452.84
2022-12-25T00:19:01.209Z,100450.72
2022-12-25T00:24:03.449Z,100445.44
2022-12-25T00:29:04.901Z,100445.91
2022-12-25T00:34:06.249Z,100431.41
2022-12-25T00:39:07.639Z,100438.84
2022-12-25T00:44:11.209Z,100434.84
2022-12-25T00:49:13.399Z,100452.75
2022-12-25T00:54:14.915Z,100460.50
2022-12-25T00:59:16.266Z,100458.25
2022-12-25T01:04:17.606Z,100446.72
2022-12-25T01:09:37.609Z,100447.03
2022-12-25T01:14:38.942Z,100448.50
2022-12-25T01:19:40.308Z,100458.25
2022-12-25T01:24:45.389Z,100454.91
2022-12-25T01:29:46.856Z,100463.09
2022-12-25T01:34:53.731Z,100469.50
2022-12-25T01:39:57.202Z,100469.16
2022-12-25T01:45:44.289Z,100473.50
2022-12-25T01:50:49.880Z,100468.97
2022-12-25T01:55:55.069Z,100464.41
2022-12-25T02:00:56.507Z,100465.81
2022-12-25T02:05:59.220Z,100463.28
2022-12-25T02:11:00.546Z,100461.91
2022-12-25T02:16:13.625Z,100464.22
2022-12-25T02:21:48.858Z,100461.53
2022-12-25T02:26:59.222Z,100448.25
2022-12-25T02:32:31.775Z,100446.56
2022-12-25T02:37:42.018Z,100452.31
2022-12-25T02:43:20.387Z,100445.44
2022-12-25T02:48:42.250Z,100439.22
2022-12-25T02:54:04.631Z,100430.84
2022-12-25T02:59:26.601Z,100421.66
2022-12-25T03:04:48.210Z,100431.41
2022-12-25T03:10:15.483Z,100429.09
2022-12-25T03:15:37.501Z,100442.56
2022-12-25T03:20:57.806Z,100439.13
2022-12-25T03:26:17.636Z,100445.53
2022-12-25T03:31:33.565Z,100449.63
2022-12-25T03:37:06.973Z,100448.88
2022-12-25T03:42:27.648Z,100442.84
2022-12-25T03:47:52.558Z,100452.81
2022-12-25T03:53:14.455Z,100429.72
2022-12-25T03:58:39.812Z,100415.34
2022-12-25T04:03:59.697Z,100407.72
2022-12-25T04:09:19.772Z,100401.94
2022-12-25T04:14:39.771Z,100408.38
2022-12-25T04:19:59.756Z,100417.09
2022-12-25T04:25:39.460Z,100398.22
2022-12-25T04:30:59.483Z,100411.53
2022-12-25T04:36:09.826Z,100394.53
2022-12-25T04:41:12.759Z,100401.28
2022-12-25T04:46:14.120Z,100398.16
2022-12-25T04:51:23.497Z,100399.91
2022-12-25T04:56:24.922Z,100395.53
2022-12-25T05:01:26.436Z,100400.91
2022-12-25T05:06:27.985Z,100388.66
2022-12-25T05:11:29.327Z,100398.44
2022-12-25T05:16:30.773Z,100406.13
2022-12-25T05:21:32.235Z,100405.31
2022-12-25T05:26:33.544Z,100409.22
2022-12-25T05:31:34.973Z,100396.75
2022-12-25T05:36:36.424Z,100400.47
2022-12-25T05:41:37.807Z,100401.13
2022-12-25T05:46:39.252Z,100407.53
2022-12-25T05:51:40.644Z,100393.31
2022-12-25T05:56:42.175Z,100382.34
2022-12-25T06:01:43.733Z,100384.47
2022-12-25T06:06:45.136Z,100378.06
2022-12-25T06:11:46.572Z,100376.19
2022-12-25T06:16:52.121Z,100382.63
2022-12-25T06:21:54.701Z,100377.41
2022-12-25T06:26:56.092Z,100373.41
2022-12-25T06:31:58.812Z,100362.66
2022-12-25T06:37:00.230Z,100350.34
2022-12-25T06:42:01.613Z,100351.22
2022-12-25T06:47:02.991Z,100353.44
2022-12-25T06:52:04.426Z,100355.75
2022-12-25T06:57:05.755Z,100362.66
2022-12-25T07:02:18.794Z,100368.88
2022-12-25T07:07:21.408Z,100358.44
2022-12-25T07:12:23.731Z,100367.75
2022-12-25T07:17:25.172Z,100364.03
2022-12-25T07:22:29.085Z,100355.75
2022-12-25T07:27:30.572Z,100358.91
2022-12-25T07:32:32.501Z,100353.81
2022-12-25T07:37:34.010Z,100349.91
2022-12-25T07:42:35.435Z,100339.13
2022-12-25T07:47:40.015Z,100347.03
2022-12-25T07:52:43.560Z,100349.66
2022-12-25T07:57:45.452Z,100349.44
2022-12-25T08:02:50.115Z,100357.91
2022-12-25T08:07:57.658Z,100363.00
2022-12-25T08:12:59.629Z,100342.75
2022-12-25T08:18:01.221Z,100321.75
2022-12-25T08:23:04.166Z,100296.78
2022-12-25T08:28:05.856Z,100304.28
2022-12-25T08:33:07.518Z,100293.03
2022-12-25T08:38:09.002Z,100312.63
2022-12-25T08:43:10.546Z,100312.69
2022-12-25T08:48:12.101Z,100317.47
2022-12-25T08:53:14.089Z,100287.44
2022-12-25T08:58:16.607Z,100276.56
2022-12-25T09:03:18.147Z,100313.25
2022-12-25T09:08:20.208Z,100319.22
2022-12-25T09:13:21.632Z,100331.97
2022-12-25T09:18:25.651Z,100330.28
2022-12-25T09:23:28.907Z,100329.97
2022-12-25T09:28:30.952Z,100331.66
2022-12-25T09:33:32.569Z,100317.41
2022-12-25T09:38:34.764Z,100318.53
2022-12-25T09:43:42.258Z,100306.22
2022-12-25T09:48:47.995Z,100307.72
2022-12-25T09:53:58.601Z,100294.50
2022-12-25T09:59:03.165Z,100300.34
2022-12-25T10:04:51.039Z,100286.22
2022-12-25T10:10:36.725Z,100272.09
2022-12-25T10:16:16.128Z,100237.75
2022-12-25T10:21:18.899Z,100229.53
2022-12-25T10:26:22.759Z,100223.16
2022-12-25T10:31:27.975Z,100240.22
2022-12-25T10:36:30.801Z,100231.94
2022-12-25T10:41:53.941Z,100232.63
2022-12-25T10:46:58.195Z,100226.41
2022-12-25T10:52:00.303Z,100211.28
2022-12-25T10:57:16.583Z,100231.31
2022-12-25T11:02:25.125Z,100229.75
2022-12-25T11:07:27.161Z,100217.19
2022-12-25T11:12:32.863Z,100212.41
2022-12-25T11:17:35.930Z,100205.28
2022-12-25T11:22:37.573Z,100201.50
2022-12-25T11:27:39.052Z,100188.53
2022-12-25T11:32:52.380Z,100188.16
2022-12-25T11:37:54.079Z,100178.78
2022-12-25T11:43:22.133Z,100185.47
2022-12-25T11:48:32.894Z,100192.50
2022-12-25T11:53:49.213Z,100153.31
2022-12-25T11:59:18.578Z,100155.38
2022-12-25T12:04:52.216Z,100140.44
2022-12-25T12:10:21.523Z,100112.09
2022-12-25T12:15:43.555Z,100099.91
2022-12-25T12:20:46.297Z,100058.78
2022-12-25T12:25:48.385Z,100084.13
2022-12-25T12:31:16.576Z,100098.03
2022-12-25T12:36:29.223Z,100102.75
2022-12-25T12:41:47.676Z,100086.59
2022-12-25T12:46:57.212Z,100082.25
2022-12-25T12:52:24.845Z,100087.88
2022-12-25T12:57:29.815Z,100078.34
2022-12-25T13:02:43.535Z,100077.72
2022-12-25T13:07:53.981Z,100068.78
2022-12-25T13:13:00.646Z,100060.25
2022-12-25T13:18:06.190Z,100069.59
2022-12-25T13:23:35.256Z,100076.44
2022-12-25T13:28:37.314Z,100074.38
2022-12-25T13:33:40.911Z,100078.94
2022-12-25T13:38:47.030Z,100062.31
2022-12-25T13:43:49.277Z,100059.81
2022-12-25T13:49:00.216Z,100051.09
2022-12-25T13:54:06.755Z,100037.56
2022-12-25T13:59:16.163Z,100044.84
2022-12-25T14:04:23.924Z,100059.63
2022-12-25T14:09:25.765Z,100056.25
2022-12-25T14:14:27.643Z,100047.53
2022-12-25T14:19:34.207Z,100046.50
2022-12-25T14:24:35.840Z,100061.84
2022-12-25T14:29:40.253Z,100063.28
2022-12-25T14:34:44.172Z,100052.66
2022-12-25T14:39:57.282Z,100062.41
2022-12-25T14:45:26.448Z,100060.88
2022-12-25T14:50:32.233Z,100060.72
2022-12-25T14:55:37.252Z,100061.34
2022-12-25T15:00:39.773Z,100054.31
2022-12-25T15:05:41.312Z,100053.47
2022-12-25T15:11:01.031Z,100061.78
2022-12-25T15:16:14.356Z,100047.41
2022-12-25T15:21:21.919Z,100043.88
2022-12-25T15:26:23.747Z,100061.72
2022-12-25T15:31:33.789Z,100060.41
2022-12-25T15:36:35.445Z,100051.03
2022-12-25T15:41:56.750Z,100034.41
2022-12-25T15:47:01.726Z,100037.06
2022-12-25T15:52:04.505Z,100046.59
2022-12-25T15:57:14.265Z,100058.63
2022-12-25T16:02:18.977Z,100056.28
2022-12-25T16:07:23.529Z,100051.94
2022-12-25T16:12:25.514Z,100046.09
2022-12-25T16:17:27.285Z,100049.59
2022-12-25T16:22:28.937Z,100034.59
2022-12-25T16:27:30.453Z,100037.63
2022-12-25T16:32:31.919Z,100033.03
2022-12-25T16:37:34.941Z,100014.94
2022-12-25T16:42:37.402Z,100000.56
2022-12-25T16:47:38.903Z,100018.53
2022-12-25T16:52:40.583Z,100042.91
2022-12-25T16:57:42.108Z,100039.56
2022-12-25T17:02:43.994Z,100055.97
2022-12-25T17:07:47.000Z,100059.66
2022-12-25T17:12:48.522Z,100070.00
2022-12-25T17:17:49.969Z,100061.44
2022-12-25T17:22:51.616Z,100060.16
2022-12-25T17:27:53.285Z,100066.97
2022-12-25T17:32:55.219Z,100056.03
2022-12-25T17:37:56.769Z,100041.97
2022-12-25T17:42:58.312Z,100033.06
2022-12-25T17:47:59.856Z,100036.00
2022-12-25T17:53:03.488Z,100032.50
2022-12-25T17:58:05.259Z,100014.97
2022-12-25T18:03:11.547Z,100017.56
2022-12-25T18:08:14.619Z,100038.00
2022-12-25T18:13:16.150Z,100045.72
2022-12-25T18:18:17.737Z,100024.06
2022-12-25T18:23:20.263Z,100020.13
2022-12-25T18:28:21.784Z,100019.31
2022-12-25T18:33:23.288Z,100010.00
2022-12-25T18:38:24.802Z,100016.44
2022-12-25T18:43:53.960Z,100005.47
2022-12-25T18:48:55.240Z,100008.16
2022-12-25T18:53:57.258Z,100010.44
2022-12-25T18:59:00.522Z,100013.78
2022-12-25T19:04:05.706Z,100006.34
2022-12-25T19:09:10.855Z,99989.34
2022-12-25T19:14:12.531Z,99997.06
2022-12-25T19:19:14.730Z,99992.72
2022-12-25T19:24:16.197Z,99999.63
2022-12-25T19:29:17.658Z,99996.78
2022-12-25T19:34:19.173Z,99986.72
2022-12-25T19:39:20.704Z,100007.03
2022-12-25T19:44:22.206Z,100024.22
2022-12-25T19:49:24.093Z,100011.47
2022-12-25T19:54:25.812Z,99984.72
2022-12-25T19:59:27.396Z,99986.00
2022-12-25T20:04:28.946Z,100003.00
2022-12-25T20:09:31.174Z,99981.47
2022-12-25T20:14:32.691Z,99984.81
2022-12-25T20:19:34.532Z,99982.75
2022-12-25T20:24:36.261Z,100009.25
2022-12-25T20:29:37.888Z,99986.22
2022-12-25T20:34:39.423Z,99990.19
2022-12-25T20:39:40.933Z,100004.31
2022-12-25T20:44:44.913Z,99995.78
2022-12-25T20:49:47.503Z,99996.63
2022-12-25T20:54:49.489Z,100004.09
2022-12-25T20:59:54.560Z,100011.75
2022-12-25T21:04:56.018Z,100016.94
2022-12-25T21:09:57.808Z,100005.31
2022-12-25T21:14:59.387Z,100019.63
2022-12-25T21:20:00.934Z,100021.44
2022-12-25T21:25:02.593Z,100033.50
2022-12-25T21:30:14.913Z,100038.91
2022-12-25T21:35:17.207Z,100032.50
2022-12-25T21:40:18.668Z,100035.41
2022-12-25T21:45:20.260Z,100053.03
2022-12-25T21:50:40.778Z,100047.88
2022-12-25T21:55:43.290Z,100055.81
2022-12-25T22:00:44.885Z,100045.22
2022-12-25T22:06:08.003Z,100051.25
2022-12-25T22:11:32.520Z,100055.19
2022-12-25T22:16:52.652Z,100058.16
2022-12-25T22:27:11.546Z,100050.78
2022-12-25T22:32:15.014Z,100049.34
2022-12-25T22:37:18.304Z,100054.13
2022-12-25T22:42:19.967Z,100050.00
2022-12-25T22:47:25.189Z,100043.34
2022-12-25T22:57:43.192Z,100053.31
2022-12-25T23:02:52.591Z,100052.66
2022-12-25T23:07:54.354Z,100063.25
2022-12-25T23:13:14.263Z,100078.41
2022-12-25T23:18:41.347Z,100081.72
2022-12-25T23:24:03.093Z,100073.22
2022-12-25T23:29:23.176Z,100046.03
2022-12-25T23:34:24.925Z,100062.59
2022-12-25T23:39:27.705Z,100069.84
2022-12-25T23:49:53.318Z,100055.31
2022-12-25T23:54:56.062Z,100051.81
2022-12-25T23:59:57.670Z,100071.34
